EZY54T EGNT-EGJB
Flight info
| Callsign | EZY54T |
|---|---|
| Flight time | 1h 5m |
| Altitude | 35000 |
| Route | GIRLI P18 GASKO P16 RIBEL UP16 NOKIN N862 KARNO/N0441F340 DCT ALHUP/N0443F360 DCT ABWIV DCT PACSE/N0390F230 N862 SIDHO N40 KLAKI L149 BIGNO |
| Aircraft | A320/M-SDE3FGHIRWY/LB1 |
Departure
| Time | 2026-04-30 10:18 |
|---|---|
| Airport | Newcastle International Airport (EGNT) |
Arrival
| Time | 2026-04-30 11:23 |
|---|---|
| Airport | Guernsey Airport (EGJB) |
| Time | Latitude | Longitude | Altitude | Speed | Heading |
|---|---|---|---|---|---|
| 2026-04-30 09:52 | 55.03659 | -1.70711 | 268 ft | 0 kts | 4° |
| 2026-04-30 10:12 | 55.03642 | -1.70713 | 267 ft | 4 kts | 4° |
| 2026-04-30 10:13 | 55.03616 | -1.70717 | 267 ft | 4 kts | 14° |
| 2026-04-30 10:13 | 55.03597 | -1.70735 | 267 ft | 4 kts | 79° |
| 2026-04-30 10:13 | 55.03597 | -1.70770 | 267 ft | 4 kts | 94° |
| 2026-04-30 10:13 | 55.03597 | -1.70781 | 267 ft | 0 kts | 94° |
| 2026-04-30 10:15 | 55.03596 | -1.70759 | 267 ft | 4 kts | 94° |
| 2026-04-30 10:16 | 55.03593 | -1.70682 | 267 ft | 9 kts | 94° |
| 2026-04-30 10:16 | 55.03551 | -1.70639 | 267 ft | 8 kts | 184° |
| 2026-04-30 10:16 | 55.03505 | -1.70644 | 267 ft | 8 kts | 184° |
| 2026-04-30 10:17 | 55.03368 | -1.70599 | 268 ft | 13 kts | 102° |
| 2026-04-30 10:17 | 55.03390 | -1.70495 | 267 ft | 6 kts | 66° |
| 2026-04-30 10:17 | 55.03435 | -1.70319 | 265 ft | 42 kts | 65° |
| 2026-04-30 10:18 | 55.03694 | -1.69349 | 256 ft | 130 kts | 64° |
| 2026-04-30 10:18 | 55.04140 | -1.67778 | 938 ft | 147 kts | 64° |
| 2026-04-30 10:18 | 55.04662 | -1.66208 | 1913 ft | 152 kts | 66° |
| 2026-04-30 10:19 | 55.05973 | -1.62798 | 2700 ft | 193 kts | 62° |
| 2026-04-30 10:19 | 55.06694 | -1.60703 | 3096 ft | 208 kts | 74° |
| 2026-04-30 10:19 | 55.07148 | -1.58293 | 3691 ft | 208 kts | 90° |
| 2026-04-30 10:19 | 55.06881 | -1.55905 | 4433 ft | 199 kts | 121° |
| 2026-04-30 10:20 | 55.06040 | -1.54058 | 5313 ft | 195 kts | 144° |
| 2026-04-30 10:20 | 55.03292 | -1.53106 | 6514 ft | 226 kts | 175° |
| 2026-04-30 10:20 | 55.01642 | -1.53112 | 7060 ft | 244 kts | 176° |
| 2026-04-30 10:21 | 54.99919 | -1.53147 | 7853 ft | 251 kts | 177° |
| 2026-04-30 10:21 | 54.98148 | -1.53316 | 8389 ft | 263 kts | 185° |
| 2026-04-30 10:21 | 54.96407 | -1.54338 | 8383 ft | 268 kts | 202° |
| 2026-04-30 10:21 | 54.94801 | -1.56010 | 8403 ft | 269 kts | 202° |
| 2026-04-30 10:22 | 54.93087 | -1.57354 | 9151 ft | 269 kts | 198° |
| 2026-04-30 10:22 | 54.91366 | -1.58636 | 10152 ft | 271 kts | 198° |
| 2026-04-30 10:22 | 54.89630 | -1.59918 | 10783 ft | 283 kts | 198° |
| 2026-04-30 10:22 | 54.87736 | -1.61303 | 11089 ft | 307 kts | 198° |
| 2026-04-30 10:23 | 54.85718 | -1.62782 | 11590 ft | 321 kts | 199° |
| 2026-04-30 10:23 | 54.83650 | -1.64309 | 12344 ft | 326 kts | 199° |
| 2026-04-30 10:23 | 54.81548 | -1.65867 | 13107 ft | 330 kts | 199° |
| 2026-04-30 10:23 | 54.79419 | -1.67442 | 13879 ft | 335 kts | 199° |
| 2026-04-30 10:24 | 54.77260 | -1.69034 | 14579 ft | 339 kts | 199° |
| 2026-04-30 10:24 | 54.75078 | -1.70640 | 15247 ft | 343 kts | 199° |
| 2026-04-30 10:24 | 54.72871 | -1.72263 | 15938 ft | 346 kts | 199° |
| 2026-04-30 10:24 | 54.70643 | -1.73899 | 16625 ft | 350 kts | 199° |
| 2026-04-30 10:25 | 54.68390 | -1.75552 | 17293 ft | 353 kts | 199° |
| 2026-04-30 10:25 | 54.66115 | -1.77217 | 17971 ft | 357 kts | 199° |
| 2026-04-30 10:25 | 54.63818 | -1.78894 | 18625 ft | 360 kts | 200° |
| 2026-04-30 10:25 | 54.61501 | -1.80581 | 19191 ft | 364 kts | 200° |
| 2026-04-30 10:26 | 54.59158 | -1.82287 | 19757 ft | 367 kts | 200° |
| 2026-04-30 10:26 | 54.56797 | -1.84007 | 20320 ft | 370 kts | 200° |
| 2026-04-30 10:26 | 54.54378 | -1.85538 | 20863 ft | 371 kts | 192° |
| 2026-04-30 10:26 | 54.51846 | -1.86429 | 21400 ft | 373 kts | 188° |
| 2026-04-30 10:27 | 54.49282 | -1.87228 | 21928 ft | 376 kts | 188° |
| 2026-04-30 10:27 | 54.46698 | -1.88031 | 22442 ft | 379 kts | 187° |
| 2026-04-30 10:27 | 54.44092 | -1.88841 | 22965 ft | 382 kts | 188° |
| 2026-04-30 10:27 | 54.41463 | -1.89662 | 23487 ft | 386 kts | 188° |
| 2026-04-30 10:28 | 54.38810 | -1.90496 | 23986 ft | 389 kts | 188° |
| 2026-04-30 10:28 | 54.36138 | -1.91335 | 24416 ft | 391 kts | 188° |
| 2026-04-30 10:28 | 54.33452 | -1.92177 | 24873 ft | 394 kts | 188° |
| 2026-04-30 10:28 | 54.30785 | -1.93007 | 25316 ft | 395 kts | 188° |
| 2026-04-30 10:29 | 54.28071 | -1.93851 | 25763 ft | 397 kts | 188° |
| 2026-04-30 10:29 | 54.25354 | -1.94847 | 26189 ft | 401 kts | 194° |
| 2026-04-30 10:29 | 54.22745 | -1.96608 | 26637 ft | 407 kts | 203° |
| 2026-04-30 10:29 | 54.20327 | -1.99198 | 27037 ft | 414 kts | 214° |
| 2026-04-30 10:30 | 54.18161 | -2.02493 | 27445 ft | 419 kts | 219° |
| 2026-04-30 10:30 | 54.16038 | -2.05924 | 27864 ft | 422 kts | 219° |
| 2026-04-30 10:30 | 54.13900 | -2.09369 | 28275 ft | 424 kts | 219° |
| 2026-04-30 10:30 | 54.11752 | -2.12818 | 28693 ft | 425 kts | 219° |
| 2026-04-30 10:31 | 54.09594 | -2.16271 | 29136 ft | 426 kts | 218° |
| 2026-04-30 10:31 | 54.07423 | -2.19726 | 29528 ft | 428 kts | 218° |
| 2026-04-30 10:31 | 54.05237 | -2.23198 | 29896 ft | 430 kts | 218° |
| 2026-04-30 10:31 | 54.03001 | -2.26575 | 30249 ft | 429 kts | 213° |
| 2026-04-30 10:32 | 54.00524 | -2.29362 | 30542 ft | 426 kts | 204° |
| 2026-04-30 10:32 | 53.97839 | -2.31437 | 30826 ft | 423 kts | 197° |
| 2026-04-30 10:32 | 53.95075 | -2.33199 | 31118 ft | 425 kts | 197° |
| 2026-04-30 10:32 | 53.92301 | -2.34972 | 31408 ft | 427 kts | 197° |
| 2026-04-30 10:33 | 53.89523 | -2.36751 | 31773 ft | 426 kts | 197° |
| 2026-04-30 10:33 | 53.86753 | -2.38531 | 32186 ft | 425 kts | 197° |
| 2026-04-30 10:33 | 53.83992 | -2.40303 | 32604 ft | 424 kts | 197° |
| 2026-04-30 10:33 | 53.81243 | -2.42068 | 33007 ft | 422 kts | 197° |
| 2026-04-30 10:34 | 53.78497 | -2.43827 | 33415 ft | 421 kts | 197° |
| 2026-04-30 10:34 | 53.75759 | -2.45574 | 33824 ft | 420 kts | 197° |
| 2026-04-30 10:34 | 53.73030 | -2.47313 | 34229 ft | 419 kts | 197° |
| 2026-04-30 10:34 | 53.70305 | -2.49052 | 34564 ft | 418 kts | 197° |
| 2026-04-30 10:35 | 53.67584 | -2.50784 | 34846 ft | 419 kts | 197° |
| 2026-04-30 10:35 | 53.64856 | -2.52512 | 35141 ft | 419 kts | 197° |
| 2026-04-30 10:35 | 53.62123 | -2.54241 | 35246 ft | 418 kts | 197° |
| 2026-04-30 10:35 | 53.59406 | -2.55963 | 35261 ft | 416 kts | 197° |
| 2026-04-30 10:36 | 53.54031 | -2.59363 | 35286 ft | 415 kts | 197° |
| 2026-04-30 10:36 | 53.48635 | -2.62754 | 35258 ft | 414 kts | 196° |
| 2026-04-30 10:37 | 53.43239 | -2.66139 | 35264 ft | 414 kts | 196° |
| 2026-04-30 10:37 | 53.37842 | -2.69531 | 35257 ft | 414 kts | 196° |
| 2026-04-30 10:38 | 53.32450 | -2.72905 | 35254 ft | 414 kts | 196° |
| 2026-04-30 10:38 | 53.27058 | -2.76269 | 35249 ft | 413 kts | 196° |
| 2026-04-30 10:39 | 53.21669 | -2.79618 | 35239 ft | 413 kts | 197° |
| 2026-04-30 10:39 | 53.16275 | -2.82966 | 35238 ft | 413 kts | 196° |
| 2026-04-30 10:40 | 53.10883 | -2.86305 | 35236 ft | 414 kts | 196° |
| 2026-04-30 10:40 | 53.05349 | -2.88498 | 35235 ft | 406 kts | 181° |
| 2026-04-30 10:41 | 52.99744 | -2.88966 | 35230 ft | 406 kts | 180° |
| 2026-04-30 10:41 | 52.94095 | -2.89435 | 35207 ft | 407 kts | 180° |
| 2026-04-30 10:42 | 52.88440 | -2.90057 | 35197 ft | 409 kts | 185° |
| 2026-04-30 10:42 | 52.82794 | -2.91399 | 35202 ft | 410 kts | 185° |
| 2026-04-30 10:43 | 52.77138 | -2.92724 | 35203 ft | 411 kts | 185° |
| 2026-04-30 10:43 | 52.71480 | -2.94043 | 35214 ft | 410 kts | 183° |
| 2026-04-30 10:44 | 52.65786 | -2.94569 | 35207 ft | 410 kts | 180° |
| 2026-04-30 10:44 | 52.60079 | -2.95038 | 35199 ft | 411 kts | 180° |
| 2026-04-30 10:45 | 52.55331 | -2.95429 | 35188 ft | 411 kts | 180° |
| 2026-04-30 10:45 | 52.49605 | -2.95908 | 35203 ft | 412 kts | 180° |
| 2026-04-30 10:46 | 52.43876 | -2.96377 | 35199 ft | 413 kts | 180° |
| 2026-04-30 10:46 | 52.38124 | -2.96844 | 35181 ft | 414 kts | 180° |
| 2026-04-30 10:47 | 52.32364 | -2.97311 | 35210 ft | 415 kts | 180° |
| 2026-04-30 10:47 | 52.26593 | -2.97785 | 35187 ft | 416 kts | 180° |
| 2026-04-30 10:48 | 52.20796 | -2.98264 | 35179 ft | 417 kts | 180° |
| 2026-04-30 10:48 | 52.15031 | -2.98737 | 35171 ft | 418 kts | 180° |
| 2026-04-30 10:49 | 52.09225 | -2.99206 | 35170 ft | 418 kts | 180° |
| 2026-04-30 10:49 | 52.03402 | -2.99674 | 35165 ft | 419 kts | 180° |
| 2026-04-30 10:50 | 51.97576 | -3.00144 | 35238 ft | 419 kts | 180° |
| 2026-04-30 10:50 | 51.91743 | -3.00614 | 35276 ft | 420 kts | 180° |
| 2026-04-30 10:51 | 51.85909 | -3.01184 | 35311 ft | 421 kts | 182° |
| 2026-04-30 10:51 | 51.80087 | -3.02339 | 35343 ft | 422 kts | 185° |
| 2026-04-30 10:52 | 51.74271 | -3.03719 | 35344 ft | 422 kts | 186° |
| 2026-04-30 10:52 | 51.68451 | -3.05025 | 35343 ft | 422 kts | 185° |
| 2026-04-30 10:53 | 51.62623 | -3.06236 | 35307 ft | 422 kts | 185° |
| 2026-04-30 10:53 | 51.56788 | -3.07413 | 35268 ft | 423 kts | 184° |
| 2026-04-30 10:54 | 51.50954 | -3.08604 | 35156 ft | 423 kts | 185° |
| 2026-04-30 10:54 | 51.45103 | -3.09819 | 35155 ft | 423 kts | 185° |
| 2026-04-30 10:55 | 51.39261 | -3.11033 | 35158 ft | 424 kts | 185° |
| 2026-04-30 10:55 | 51.33414 | -3.12232 | 35160 ft | 424 kts | 185° |
| 2026-04-30 10:56 | 51.27594 | -3.13420 | 35151 ft | 424 kts | 185° |
| 2026-04-30 10:56 | 51.21750 | -3.14617 | 35155 ft | 422 kts | 185° |
| 2026-04-30 10:57 | 51.15919 | -3.15804 | 35163 ft | 421 kts | 185° |
| 2026-04-30 10:57 | 51.10103 | -3.16985 | 35152 ft | 421 kts | 185° |
| 2026-04-30 10:58 | 51.04297 | -3.18152 | 35154 ft | 420 kts | 185° |
| 2026-04-30 10:58 | 50.98497 | -3.19326 | 35149 ft | 420 kts | 185° |
| 2026-04-30 10:59 | 50.92696 | -3.20495 | 35147 ft | 420 kts | 185° |
| 2026-04-30 10:59 | 50.86908 | -3.21658 | 35141 ft | 419 kts | 185° |
| 2026-04-30 11:00 | 50.81119 | -3.22815 | 35142 ft | 419 kts | 185° |
| 2026-04-30 11:00 | 50.75370 | -3.23454 | 35147 ft | 416 kts | 174° |
| 2026-04-30 11:01 | 50.69663 | -3.22056 | 35136 ft | 415 kts | 169° |
| 2026-04-30 11:01 | 50.63961 | -3.20492 | 35118 ft | 417 kts | 169° |
| 2026-04-30 11:02 | 50.58236 | -3.18930 | 35121 ft | 418 kts | 169° |
| 2026-04-30 11:02 | 50.52511 | -3.17361 | 35123 ft | 418 kts | 169° |
| 2026-04-30 11:03 | 50.46776 | -3.15796 | 35127 ft | 418 kts | 169° |
| 2026-04-30 11:04 | 50.38194 | -3.13378 | 35124 ft | 417 kts | 164° |
| 2026-04-30 11:04 | 50.35483 | -3.11805 | 35125 ft | 416 kts | 153° |
| 2026-04-30 11:04 | 50.32957 | -3.09712 | 35127 ft | 416 kts | 152° |
| 2026-04-30 11:05 | 50.27862 | -3.05466 | 34763 ft | 411 kts | 152° |
| 2026-04-30 11:05 | 50.25340 | -3.03374 | 34201 ft | 410 kts | 152° |
| 2026-04-30 11:05 | 50.22824 | -3.01290 | 33539 ft | 409 kts | 152° |
| 2026-04-30 11:05 | 50.20309 | -2.99212 | 32926 ft | 408 kts | 152° |
| 2026-04-30 11:06 | 50.17814 | -2.97151 | 32385 ft | 404 kts | 152° |
| 2026-04-30 11:06 | 50.15335 | -2.95108 | 31869 ft | 401 kts | 152° |
| 2026-04-30 11:06 | 50.12875 | -2.93085 | 31354 ft | 398 kts | 152° |
| 2026-04-30 11:06 | 50.10434 | -2.91076 | 30835 ft | 395 kts | 152° |
| 2026-04-30 11:07 | 50.08008 | -2.89082 | 30327 ft | 393 kts | 152° |
| 2026-04-30 11:07 | 50.05598 | -2.87104 | 29751 ft | 391 kts | 152° |
| 2026-04-30 11:07 | 50.03203 | -2.85140 | 29213 ft | 387 kts | 152° |
| 2026-04-30 11:07 | 50.00825 | -2.83209 | 28684 ft | 384 kts | 154° |
| 2026-04-30 11:08 | 49.98318 | -2.81829 | 28166 ft | 382 kts | 164° |
| 2026-04-30 11:08 | 49.95755 | -2.80807 | 27639 ft | 379 kts | 164° |
| 2026-04-30 11:08 | 49.93213 | -2.79801 | 27134 ft | 376 kts | 164° |
| 2026-04-30 11:08 | 49.90687 | -2.78800 | 26643 ft | 373 kts | 164° |
| 2026-04-30 11:09 | 49.88180 | -2.77809 | 26153 ft | 370 kts | 164° |
| 2026-04-30 11:09 | 49.85696 | -2.76830 | 25666 ft | 367 kts | 164° |
| 2026-04-30 11:09 | 49.83230 | -2.75861 | 25186 ft | 365 kts | 164° |
| 2026-04-30 11:09 | 49.80779 | -2.74896 | 24717 ft | 362 kts | 164° |
| 2026-04-30 11:10 | 49.78350 | -2.73939 | 24253 ft | 360 kts | 164° |
| 2026-04-30 11:10 | 49.75929 | -2.72986 | 23799 ft | 357 kts | 164° |
| 2026-04-30 11:10 | 49.73528 | -2.72040 | 23288 ft | 355 kts | 164° |
| 2026-04-30 11:10 | 49.71141 | -2.71098 | 22800 ft | 352 kts | 164° |
| 2026-04-30 11:11 | 49.68779 | -2.70166 | 22306 ft | 349 kts | 164° |
| 2026-04-30 11:11 | 49.66429 | -2.69243 | 21822 ft | 347 kts | 164° |
| 2026-04-30 11:11 | 49.64096 | -2.68331 | 21367 ft | 344 kts | 164° |
| 2026-04-30 11:11 | 49.61815 | -2.67441 | 20931 ft | 341 kts | 164° |
| 2026-04-30 11:12 | 49.59521 | -2.66547 | 20497 ft | 338 kts | 164° |
| 2026-04-30 11:12 | 49.57248 | -2.65663 | 20058 ft | 336 kts | 164° |
| 2026-04-30 11:12 | 49.54988 | -2.64785 | 19660 ft | 333 kts | 164° |
| 2026-04-30 11:12 | 49.52780 | -2.63927 | 19513 ft | 322 kts | 164° |
| 2026-04-30 11:13 | 49.50647 | -2.63098 | 19387 ft | 311 kts | 164° |
| 2026-04-30 11:13 | 49.48574 | -2.62290 | 19136 ft | 305 kts | 164° |
| 2026-04-30 11:13 | 49.46520 | -2.61486 | 18774 ft | 304 kts | 164° |
| 2026-04-30 11:13 | 49.44478 | -2.60688 | 18453 ft | 302 kts | 164° |
| 2026-04-30 11:14 | 49.42390 | -2.60223 | 17950 ft | 308 kts | 182° |
| 2026-04-30 11:14 | 49.40343 | -2.61279 | 17384 ft | 320 kts | 210° |
| 2026-04-30 11:14 | 49.38834 | -2.63805 | 16674 ft | 329 kts | 239° |
| 2026-04-30 11:14 | 49.38287 | -2.67225 | 15993 ft | 338 kts | 268° |
| 2026-04-30 11:15 | 49.38791 | -2.70756 | 15342 ft | 342 kts | 289° |
| 2026-04-30 11:15 | 49.39855 | -2.74022 | 14685 ft | 342 kts | 299° |
| 2026-04-30 11:15 | 49.41138 | -2.77092 | 14052 ft | 341 kts | 302° |
| 2026-04-30 11:15 | 49.42466 | -2.80112 | 13176 ft | 343 kts | 303° |
| 2026-04-30 11:16 | 49.43881 | -2.83085 | 12227 ft | 347 kts | 306° |
| 2026-04-30 11:16 | 49.45421 | -2.85960 | 11292 ft | 349 kts | 309° |
| 2026-04-30 11:16 | 49.46998 | -2.88732 | 10402 ft | 349 kts | 309° |
| 2026-04-30 11:16 | 49.48328 | -2.91795 | 9465 ft | 342 kts | 288° |
| 2026-04-30 11:17 | 49.48637 | -2.95328 | 8511 ft | 329 kts | 258° |
| 2026-04-30 11:17 | 49.47848 | -2.98510 | 7588 ft | 315 kts | 229° |
| 2026-04-30 11:17 | 49.46208 | -3.00570 | 6690 ft | 302 kts | 200° |
| 2026-04-30 11:17 | 49.44189 | -3.01009 | 5751 ft | 293 kts | 169° |
| 2026-04-30 11:18 | 49.42361 | -2.99754 | 4821 ft | 290 kts | 139° |
| 2026-04-30 11:18 | 49.41225 | -2.94088 | 3063 ft | 294 kts | 79° |
| 2026-04-30 11:18 | 49.41727 | -2.91142 | 2714 ft | 274 kts | 78° |
| 2026-04-30 11:19 | 49.42204 | -2.88441 | 2581 ft | 250 kts | 78° |
| 2026-04-30 11:19 | 49.42651 | -2.85981 | 2449 ft | 228 kts | 78° |
| 2026-04-30 11:19 | 49.42936 | -2.83704 | 2341 ft | 207 kts | 88° |
| 2026-04-30 11:19 | 49.43020 | -2.81584 | 2223 ft | 191 kts | 92° |
| 2026-04-30 11:20 | 49.43053 | -2.79595 | 2125 ft | 183 kts | 95° |
| 2026-04-30 11:20 | 49.43040 | -2.77661 | 2038 ft | 181 kts | 94° |
| 2026-04-30 11:20 | 49.43066 | -2.75741 | 2013 ft | 179 kts | 93° |
| 2026-04-30 11:20 | 49.43111 | -2.73858 | 1998 ft | 180 kts | 92° |
| 2026-04-30 11:21 | 49.43163 | -2.71990 | 1716 ft | 168 kts | 92° |
| 2026-04-30 11:21 | 49.43213 | -2.70246 | 1480 ft | 159 kts | 92° |
| 2026-04-30 11:21 | 49.43260 | -2.68579 | 1265 ft | 154 kts | 92° |
| 2026-04-30 11:21 | 49.43306 | -2.66988 | 1063 ft | 142 kts | 90° |
| 2026-04-30 11:22 | 49.43347 | -2.65493 | 853 ft | 139 kts | 89° |
| 2026-04-30 11:22 | 49.43389 | -2.64028 | 686 ft | 136 kts | 89° |
| 2026-04-30 11:22 | 49.43435 | -2.62592 | 503 ft | 134 kts | 89° |
| 2026-04-30 11:22 | 49.43474 | -2.61169 | 335 ft | 132 kts | 89° |
| 2026-04-30 11:23 | 49.43505 | -2.59888 | 323 ft | 90 kts | 87° |
| 2026-04-30 11:23 | 49.43520 | -2.59395 | 335 ft | 26 kts | 87° |
| 2026-04-30 11:23 | 49.43441 | -2.59197 | 334 ft | 8 kts | 177° |
| 2026-04-30 11:24 | 49.43386 | -2.59212 | 332 ft | 6 kts | 221° |
| 2026-04-30 11:24 | 49.43372 | -2.59269 | 333 ft | 6 kts | 266° |
| 2026-04-30 11:24 | 49.43369 | -2.59347 | 334 ft | 5 kts | 266° |
| 2026-04-30 11:25 | 49.43365 | -2.59512 | 332 ft | 10 kts | 269° |
| 2026-04-30 11:25 | 49.43364 | -2.59559 | 331 ft | 2 kts | 268° |
| 2026-04-30 11:25 | 49.43335 | -2.59566 | 331 ft | 3 kts | 179° |
| 2026-04-30 11:26 | 49.43280 | -2.59563 | 325 ft | 2 kts | 178° |
| 2026-04-30 11:26 | 49.43272 | -2.59563 | 326 ft | 1 kts | 178° |
| 2026-04-30 11:29 | 49.43271 | -2.59563 | 326 ft | 0 kts | 178° |